TGL971C LFPG-LFLL
Flight info
| Callsign | TGL971C |
|---|---|
| Flight time | 0h 46m |
| Altitude | 27000 |
| Route | OKASI DCT OKEKO DCT OKEPI DCT MOU/N0391F190 A3 FEDZI |
| Aircraft | A320/M-SDE3FGHIRWY/LB1 |
Departure
| Time | 2026-05-06 13:08 |
|---|---|
| Airport | Charles de Gaulle International Airport (LFPG) |
Arrival
| Time | 2026-05-06 13:54 |
|---|---|
| Airport | Lyon Saint-Exupéry Airport (LFLL) |
| Time | Latitude | Longitude | Altitude | Speed | Heading |
|---|---|---|---|---|---|
| 2026-05-06 12:36 | 49.00558 | 2.56592 | 359 ft | 0 kts | 166° |
| 2026-05-06 12:48 | 49.00559 | 2.56592 | 354 ft | 0 kts | 166° |
| 2026-05-06 12:52 | 49.00572 | 2.56586 | 362 ft | 3 kts | 163° |
| 2026-05-06 12:52 | 49.00595 | 2.56574 | 357 ft | 3 kts | 149° |
| 2026-05-06 12:53 | 49.00611 | 2.56553 | 357 ft | 3 kts | 105° |
| 2026-05-06 12:53 | 49.00613 | 2.56539 | 354 ft | 1 kts | 85° |
| 2026-05-06 12:55 | 49.00613 | 2.56540 | 354 ft | 1 kts | 85° |
| 2026-05-06 12:55 | 49.00615 | 2.56569 | 354 ft | 5 kts | 85° |
| 2026-05-06 12:55 | 49.00618 | 2.56639 | 354 ft | 9 kts | 86° |
| 2026-05-06 12:56 | 49.00623 | 2.56748 | 361 ft | 12 kts | 86° |
| 2026-05-06 12:56 | 49.00630 | 2.56873 | 354 ft | 11 kts | 84° |
| 2026-05-06 12:56 | 49.00652 | 2.56980 | 362 ft | 10 kts | 70° |
| 2026-05-06 12:56 | 49.00668 | 2.57081 | 360 ft | 10 kts | 76° |
| 2026-05-06 12:57 | 49.00689 | 2.57184 | 360 ft | 11 kts | 66° |
| 2026-05-06 12:57 | 49.00753 | 2.57239 | 361 ft | 11 kts | 26° |
| 2026-05-06 12:57 | 49.00777 | 2.57354 | 359 ft | 12 kts | 84° |
| 2026-05-06 12:57 | 49.00785 | 2.57490 | 354 ft | 13 kts | 84° |
| 2026-05-06 12:58 | 49.00792 | 2.57627 | 361 ft | 13 kts | 86° |
| 2026-05-06 12:58 | 49.00799 | 2.57761 | 354 ft | 12 kts | 85° |
| 2026-05-06 12:58 | 49.00806 | 2.57890 | 354 ft | 12 kts | 85° |
| 2026-05-06 12:58 | 49.00813 | 2.58011 | 357 ft | 11 kts | 85° |
| 2026-05-06 12:59 | 49.00819 | 2.58122 | 354 ft | 10 kts | 85° |
| 2026-05-06 12:59 | 49.00825 | 2.58221 | 359 ft | 9 kts | 86° |
| 2026-05-06 12:59 | 49.00829 | 2.58316 | 354 ft | 10 kts | 86° |
| 2026-05-06 12:59 | 49.00836 | 2.58428 | 354 ft | 12 kts | 84° |
| 2026-05-06 13:00 | 49.00842 | 2.58563 | 354 ft | 14 kts | 83° |
| 2026-05-06 13:00 | 49.00850 | 2.58715 | 358 ft | 14 kts | 85° |
| 2026-05-06 13:00 | 49.00858 | 2.58863 | 354 ft | 14 kts | 84° |
| 2026-05-06 13:00 | 49.00867 | 2.59002 | 359 ft | 13 kts | 84° |
| 2026-05-06 13:01 | 49.00873 | 2.59128 | 356 ft | 11 kts | 87° |
| 2026-05-06 13:01 | 49.00879 | 2.59243 | 358 ft | 10 kts | 85° |
| 2026-05-06 13:01 | 49.00884 | 2.59347 | 354 ft | 9 kts | 85° |
| 2026-05-06 13:01 | 49.00890 | 2.59440 | 354 ft | 8 kts | 85° |
| 2026-05-06 13:02 | 49.00881 | 2.59517 | 354 ft | 7 kts | 127° |
| 2026-05-06 13:02 | 49.00840 | 2.59546 | 358 ft | 6 kts | 171° |
| 2026-05-06 13:02 | 49.00803 | 2.59550 | 354 ft | 5 kts | 176° |
| 2026-05-06 13:02 | 49.00773 | 2.59554 | 359 ft | 4 kts | 175° |
| 2026-05-06 13:03 | 49.00753 | 2.59557 | 357 ft | 3 kts | 175° |
| 2026-05-06 13:03 | 49.00724 | 2.59560 | 354 ft | 6 kts | 175° |
| 2026-05-06 13:03 | 49.00672 | 2.59567 | 354 ft | 9 kts | 174° |
| 2026-05-06 13:03 | 49.00597 | 2.59576 | 356 ft | 12 kts | 175° |
| 2026-05-06 13:04 | 49.00502 | 2.59588 | 360 ft | 15 kts | 175° |
| 2026-05-06 13:04 | 49.00405 | 2.59600 | 361 ft | 13 kts | 175° |
| 2026-05-06 13:04 | 49.00316 | 2.59611 | 354 ft | 12 kts | 175° |
| 2026-05-06 13:04 | 49.00236 | 2.59621 | 354 ft | 11 kts | 175° |
| 2026-05-06 13:05 | 49.00164 | 2.59630 | 354 ft | 10 kts | 175° |
| 2026-05-06 13:05 | 49.00100 | 2.59638 | 354 ft | 9 kts | 175° |
| 2026-05-06 13:05 | 49.00044 | 2.59644 | 354 ft | 7 kts | 175° |
| 2026-05-06 13:05 | 48.99996 | 2.59650 | 360 ft | 6 kts | 175° |
| 2026-05-06 13:06 | 48.99956 | 2.59655 | 354 ft | 5 kts | 175° |
| 2026-05-06 13:06 | 48.99925 | 2.59659 | 357 ft | 4 kts | 175° |
| 2026-05-06 13:06 | 48.99891 | 2.59663 | 358 ft | 6 kts | 174° |
| 2026-05-06 13:06 | 48.99853 | 2.59668 | 354 ft | 5 kts | 175° |
| 2026-05-06 13:07 | 48.99816 | 2.59662 | 353 ft | 6 kts | 206° |
| 2026-05-06 13:07 | 48.99801 | 2.59596 | 361 ft | 12 kts | 263° |
| 2026-05-06 13:07 | 48.99775 | 2.59116 | 354 ft | 82 kts | 265° |
| 2026-05-06 13:07 | 48.99714 | 2.57942 | 363 ft | 138 kts | 265° |
| 2026-05-06 13:08 | 48.99613 | 2.56290 | 623 ft | 161 kts | 266° |
| 2026-05-06 13:08 | 48.99531 | 2.54620 | 1382 ft | 157 kts | 270° |
| 2026-05-06 13:08 | 48.99458 | 2.52961 | 2121 ft | 157 kts | 270° |
| 2026-05-06 13:08 | 48.99369 | 2.51321 | 2814 ft | 154 kts | 269° |
| 2026-05-06 13:09 | 48.99273 | 2.49688 | 3444 ft | 155 kts | 270° |
| 2026-05-06 13:09 | 48.99179 | 2.47994 | 3846 ft | 171 kts | 270° |
| 2026-05-06 13:09 | 48.99091 | 2.46095 | 4208 ft | 188 kts | 270° |
| 2026-05-06 13:09 | 48.98982 | 2.44034 | 4600 ft | 204 kts | 269° |
| 2026-05-06 13:10 | 48.98859 | 2.41776 | 4853 ft | 229 kts | 269° |
| 2026-05-06 13:10 | 48.98728 | 2.39201 | 5231 ft | 254 kts | 269° |
| 2026-05-06 13:10 | 48.98594 | 2.36423 | 5891 ft | 268 kts | 268° |
| 2026-05-06 13:10 | 48.98424 | 2.33560 | 6731 ft | 274 kts | 268° |
| 2026-05-06 13:11 | 48.98243 | 2.30653 | 7571 ft | 278 kts | 267° |
| 2026-05-06 13:11 | 48.98059 | 2.27720 | 8501 ft | 278 kts | 266° |
| 2026-05-06 13:11 | 48.97889 | 2.24805 | 9512 ft | 275 kts | 266° |
| 2026-05-06 13:11 | 48.97731 | 2.21900 | 10337 ft | 279 kts | 264° |
| 2026-05-06 13:12 | 48.97183 | 2.18988 | 10737 ft | 299 kts | 242° |
| 2026-05-06 13:12 | 48.95752 | 2.16587 | 11143 ft | 319 kts | 217° |
| 2026-05-06 13:12 | 48.93697 | 2.15098 | 11652 ft | 333 kts | 196° |
| 2026-05-06 13:12 | 48.91409 | 2.14604 | 12575 ft | 334 kts | 181° |
| 2026-05-06 13:13 | 48.89103 | 2.15110 | 13391 ft | 339 kts | 166° |
| 2026-05-06 13:13 | 48.86822 | 2.16122 | 14040 ft | 344 kts | 163° |
| 2026-05-06 13:13 | 48.84518 | 2.17244 | 14630 ft | 350 kts | 162° |
| 2026-05-06 13:13 | 48.82196 | 2.18409 | 15290 ft | 352 kts | 162° |
| 2026-05-06 13:14 | 48.79864 | 2.19582 | 15950 ft | 355 kts | 163° |
| 2026-05-06 13:14 | 48.77508 | 2.20752 | 16597 ft | 358 kts | 163° |
| 2026-05-06 13:14 | 48.75130 | 2.21917 | 17286 ft | 361 kts | 163° |
| 2026-05-06 13:14 | 48.72732 | 2.23080 | 18004 ft | 364 kts | 163° |
| 2026-05-06 13:15 | 48.71117 | 2.23890 | 18423 ft | 366 kts | 160° |
| 2026-05-06 13:15 | 48.68828 | 2.25554 | 19050 ft | 370 kts | 150° |
| 2026-05-06 13:15 | 48.66623 | 2.27579 | 19672 ft | 372 kts | 150° |
| 2026-05-06 13:15 | 48.64412 | 2.29611 | 20295 ft | 373 kts | 150° |
| 2026-05-06 13:16 | 48.62186 | 2.31653 | 20897 ft | 375 kts | 150° |
| 2026-05-06 13:16 | 48.59949 | 2.33702 | 21450 ft | 377 kts | 150° |
| 2026-05-06 13:16 | 48.57697 | 2.35763 | 21987 ft | 380 kts | 150° |
| 2026-05-06 13:16 | 48.55431 | 2.37833 | 22522 ft | 382 kts | 150° |
| 2026-05-06 13:17 | 48.53150 | 2.39913 | 23043 ft | 384 kts | 150° |
| 2026-05-06 13:17 | 48.50855 | 2.42007 | 23541 ft | 387 kts | 150° |
| 2026-05-06 13:17 | 48.48540 | 2.44116 | 23988 ft | 390 kts | 150° |
| 2026-05-06 13:17 | 48.46211 | 2.46231 | 24410 ft | 392 kts | 150° |
| 2026-05-06 13:18 | 48.43869 | 2.48356 | 24858 ft | 394 kts | 150° |
| 2026-05-06 13:18 | 48.41515 | 2.50488 | 25319 ft | 396 kts | 150° |
| 2026-05-06 13:18 | 48.39147 | 2.52631 | 25742 ft | 399 kts | 150° |
| 2026-05-06 13:18 | 48.36757 | 2.54793 | 26128 ft | 402 kts | 150° |
| 2026-05-06 13:19 | 48.34349 | 2.56969 | 26521 ft | 405 kts | 150° |
| 2026-05-06 13:19 | 48.31933 | 2.59151 | 26846 ft | 405 kts | 150° |
| 2026-05-06 13:19 | 48.29508 | 2.61342 | 26918 ft | 411 kts | 150° |
| 2026-05-06 13:19 | 48.27016 | 2.63550 | 26924 ft | 422 kts | 152° |
| 2026-05-06 13:20 | 48.24404 | 2.65684 | 26924 ft | 432 kts | 153° |
| 2026-05-06 13:20 | 48.21708 | 2.67752 | 26925 ft | 437 kts | 154° |
| 2026-05-06 13:20 | 48.18973 | 2.69784 | 26928 ft | 439 kts | 154° |
| 2026-05-06 13:20 | 48.16229 | 2.71808 | 26922 ft | 440 kts | 154° |
| 2026-05-06 13:21 | 48.13484 | 2.73849 | 26921 ft | 441 kts | 153° |
| 2026-05-06 13:21 | 48.10742 | 2.75912 | 26924 ft | 442 kts | 153° |
| 2026-05-06 13:21 | 48.07995 | 2.77987 | 26929 ft | 441 kts | 154° |
| 2026-05-06 13:21 | 48.05224 | 2.79944 | 26928 ft | 440 kts | 156° |
| 2026-05-06 13:22 | 48.02424 | 2.81769 | 26924 ft | 440 kts | 157° |
| 2026-05-06 13:22 | 47.99590 | 2.83523 | 26918 ft | 441 kts | 158° |
| 2026-05-06 13:22 | 47.96744 | 2.85250 | 26919 ft | 442 kts | 158° |
| 2026-05-06 13:22 | 47.93893 | 2.86987 | 26922 ft | 443 kts | 158° |
| 2026-05-06 13:23 | 47.91050 | 2.88745 | 26922 ft | 443 kts | 157° |
| 2026-05-06 13:23 | 47.88218 | 2.90525 | 26921 ft | 442 kts | 157° |
| 2026-05-06 13:23 | 47.85387 | 2.92324 | 26914 ft | 442 kts | 157° |
| 2026-05-06 13:23 | 47.82563 | 2.94122 | 26917 ft | 441 kts | 157° |
| 2026-05-06 13:24 | 47.79743 | 2.95915 | 26915 ft | 441 kts | 156° |
| 2026-05-06 13:24 | 47.76919 | 2.97707 | 26918 ft | 441 kts | 156° |
| 2026-05-06 13:24 | 47.74098 | 2.99489 | 26925 ft | 441 kts | 156° |
| 2026-05-06 13:24 | 47.71276 | 3.01261 | 26918 ft | 441 kts | 156° |
| 2026-05-06 13:25 | 47.68445 | 3.03032 | 26915 ft | 441 kts | 156° |
| 2026-05-06 13:25 | 47.65619 | 3.04799 | 26911 ft | 441 kts | 156° |
| 2026-05-06 13:25 | 47.62791 | 3.06566 | 26908 ft | 441 kts | 156° |
| 2026-05-06 13:25 | 47.60001 | 3.08312 | 26908 ft | 441 kts | 156° |
| 2026-05-06 13:26 | 47.57132 | 3.10108 | 26911 ft | 442 kts | 156° |
| 2026-05-06 13:26 | 47.54294 | 3.11883 | 26911 ft | 442 kts | 156° |
| 2026-05-06 13:26 | 47.51464 | 3.13653 | 26911 ft | 441 kts | 156° |
| 2026-05-06 13:26 | 47.48673 | 3.15395 | 26909 ft | 441 kts | 156° |
| 2026-05-06 13:27 | 47.45842 | 3.17153 | 26905 ft | 441 kts | 156° |
| 2026-05-06 13:27 | 47.43016 | 3.18906 | 26906 ft | 441 kts | 156° |
| 2026-05-06 13:27 | 47.40182 | 3.20666 | 26905 ft | 441 kts | 156° |
| 2026-05-06 13:27 | 47.37353 | 3.22428 | 26905 ft | 441 kts | 156° |
| 2026-05-06 13:28 | 47.34522 | 3.24189 | 26911 ft | 442 kts | 156° |
| 2026-05-06 13:28 | 47.31689 | 3.25946 | 26909 ft | 442 kts | 156° |
| 2026-05-06 13:28 | 47.28857 | 3.27692 | 26897 ft | 441 kts | 156° |
| 2026-05-06 13:28 | 47.26029 | 3.29430 | 26895 ft | 440 kts | 156° |
| 2026-05-06 13:29 | 47.23204 | 3.31167 | 26886 ft | 440 kts | 156° |
| 2026-05-06 13:29 | 47.20379 | 3.32903 | 26889 ft | 440 kts | 156° |
| 2026-05-06 13:29 | 47.17556 | 3.34635 | 26889 ft | 440 kts | 156° |
| 2026-05-06 13:29 | 47.14732 | 3.36369 | 26886 ft | 440 kts | 156° |
| 2026-05-06 13:30 | 47.11910 | 3.38104 | 26890 ft | 440 kts | 156° |
| 2026-05-06 13:30 | 47.09084 | 3.39840 | 26902 ft | 440 kts | 156° |
| 2026-05-06 13:30 | 47.06262 | 3.41571 | 26899 ft | 440 kts | 156° |
| 2026-05-06 13:30 | 47.03440 | 3.43295 | 26897 ft | 440 kts | 156° |
| 2026-05-06 13:31 | 47.00614 | 3.45017 | 26893 ft | 440 kts | 156° |
| 2026-05-06 13:31 | 46.97788 | 3.46736 | 26890 ft | 440 kts | 156° |
| 2026-05-06 13:31 | 46.94963 | 3.48452 | 26892 ft | 440 kts | 156° |
| 2026-05-06 13:31 | 46.92138 | 3.50170 | 26889 ft | 440 kts | 156° |
| 2026-05-06 13:32 | 46.89312 | 3.51888 | 26843 ft | 441 kts | 156° |
| 2026-05-06 13:32 | 46.86470 | 3.53615 | 26572 ft | 442 kts | 156° |
| 2026-05-06 13:32 | 46.83625 | 3.55343 | 26316 ft | 444 kts | 156° |
| 2026-05-06 13:32 | 46.80762 | 3.57079 | 26059 ft | 447 kts | 156° |
| 2026-05-06 13:33 | 46.77889 | 3.58818 | 25795 ft | 448 kts | 156° |
| 2026-05-06 13:33 | 46.75002 | 3.60560 | 25541 ft | 450 kts | 157° |
| 2026-05-06 13:33 | 46.72106 | 3.62304 | 25293 ft | 451 kts | 156° |
| 2026-05-06 13:33 | 46.69198 | 3.64043 | 25041 ft | 452 kts | 157° |
| 2026-05-06 13:34 | 46.66267 | 3.65713 | 24801 ft | 454 kts | 158° |
| 2026-05-06 13:34 | 46.63302 | 3.67331 | 24557 ft | 455 kts | 159° |
| 2026-05-06 13:34 | 46.60330 | 3.68920 | 24310 ft | 455 kts | 159° |
| 2026-05-06 13:34 | 46.57362 | 3.70496 | 24075 ft | 455 kts | 159° |
| 2026-05-06 13:35 | 46.54387 | 3.72084 | 23681 ft | 452 kts | 159° |
| 2026-05-06 13:35 | 46.51442 | 3.73670 | 22738 ft | 451 kts | 159° |
| 2026-05-06 13:35 | 46.48518 | 3.75258 | 21982 ft | 446 kts | 159° |
| 2026-05-06 13:35 | 46.45628 | 3.76835 | 21232 ft | 442 kts | 159° |
| 2026-05-06 13:36 | 46.42771 | 3.78430 | 20476 ft | 438 kts | 159° |
| 2026-05-06 13:36 | 46.39966 | 3.80092 | 19753 ft | 435 kts | 155° |
| 2026-05-06 13:36 | 46.37370 | 3.82300 | 19051 ft | 432 kts | 144° |
| 2026-05-06 13:36 | 46.35097 | 3.85115 | 18530 ft | 428 kts | 135° |
| 2026-05-06 13:37 | 46.33172 | 3.88388 | 18175 ft | 426 kts | 128° |
| 2026-05-06 13:37 | 46.31377 | 3.91774 | 17725 ft | 424 kts | 128° |
| 2026-05-06 13:37 | 46.29576 | 3.95148 | 17321 ft | 422 kts | 129° |
| 2026-05-06 13:37 | 46.27790 | 3.98486 | 16925 ft | 419 kts | 129° |
| 2026-05-06 13:38 | 46.26014 | 4.01801 | 16513 ft | 414 kts | 129° |
| 2026-05-06 13:38 | 46.24260 | 4.05080 | 16135 ft | 411 kts | 129° |
| 2026-05-06 13:38 | 46.22541 | 4.08296 | 15747 ft | 409 kts | 129° |
| 2026-05-06 13:38 | 46.20788 | 4.11583 | 15352 ft | 407 kts | 129° |
| 2026-05-06 13:39 | 46.19087 | 4.14774 | 14973 ft | 405 kts | 129° |
| 2026-05-06 13:39 | 46.17370 | 4.17986 | 14586 ft | 404 kts | 129° |
| 2026-05-06 13:39 | 46.15657 | 4.21190 | 14206 ft | 403 kts | 129° |
| 2026-05-06 13:39 | 46.13949 | 4.24383 | 13818 ft | 401 kts | 129° |
| 2026-05-06 13:40 | 46.12248 | 4.27558 | 13406 ft | 399 kts | 129° |
| 2026-05-06 13:40 | 46.10551 | 4.30717 | 13011 ft | 397 kts | 129° |
| 2026-05-06 13:40 | 46.08867 | 4.33847 | 12651 ft | 395 kts | 129° |
| 2026-05-06 13:40 | 46.07190 | 4.36961 | 12272 ft | 392 kts | 129° |
| 2026-05-06 13:41 | 46.05516 | 4.40060 | 11897 ft | 390 kts | 129° |
| 2026-05-06 13:41 | 46.03856 | 4.43130 | 11533 ft | 388 kts | 129° |
| 2026-05-06 13:41 | 46.02203 | 4.46188 | 11161 ft | 386 kts | 129° |
| 2026-05-06 13:41 | 46.00585 | 4.49179 | 10951 ft | 371 kts | 129° |
| 2026-05-06 13:42 | 45.99174 | 4.52185 | 10826 ft | 355 kts | 122° |
| 2026-05-06 13:42 | 45.97908 | 4.55146 | 10703 ft | 340 kts | 122° |
| 2026-05-06 13:42 | 45.96648 | 4.57945 | 10579 ft | 326 kts | 129° |
| 2026-05-06 13:42 | 45.95125 | 4.60263 | 10461 ft | 313 kts | 141° |
| 2026-05-06 13:43 | 45.93378 | 4.62008 | 10324 ft | 300 kts | 153° |
| 2026-05-06 13:43 | 45.91534 | 4.63327 | 10125 ft | 293 kts | 156° |
| 2026-05-06 13:43 | 45.89707 | 4.64610 | 10036 ft | 292 kts | 156° |
| 2026-05-06 13:43 | 45.87887 | 4.65892 | 9908 ft | 291 kts | 156° |
| 2026-05-06 13:44 | 45.86067 | 4.67169 | 9626 ft | 290 kts | 155° |
| 2026-05-06 13:44 | 45.84263 | 4.68432 | 9361 ft | 288 kts | 155° |
| 2026-05-06 13:44 | 45.82465 | 4.69687 | 9125 ft | 287 kts | 155° |
| 2026-05-06 13:44 | 45.80670 | 4.70940 | 8876 ft | 286 kts | 156° |
| 2026-05-06 13:45 | 45.78885 | 4.72187 | 8618 ft | 285 kts | 156° |
| 2026-05-06 13:45 | 45.75351 | 4.74661 | 8133 ft | 282 kts | 156° |
| 2026-05-06 13:45 | 45.73594 | 4.75889 | 7886 ft | 280 kts | 156° |
| 2026-05-06 13:46 | 45.71845 | 4.77111 | 7636 ft | 279 kts | 156° |
| 2026-05-06 13:46 | 45.70104 | 4.78329 | 7381 ft | 278 kts | 156° |
| 2026-05-06 13:46 | 45.68365 | 4.79542 | 7142 ft | 277 kts | 156° |
| 2026-05-06 13:46 | 45.66635 | 4.80745 | 6892 ft | 276 kts | 156° |
| 2026-05-06 13:47 | 45.64911 | 4.81941 | 6655 ft | 275 kts | 156° |
| 2026-05-06 13:47 | 45.63191 | 4.83132 | 6419 ft | 274 kts | 156° |
| 2026-05-06 13:47 | 45.61478 | 4.84318 | 6171 ft | 273 kts | 156° |
| 2026-05-06 13:47 | 45.59852 | 4.85696 | 5931 ft | 273 kts | 142° |
| 2026-05-06 13:48 | 45.58548 | 4.87643 | 5738 ft | 270 kts | 127° |
| 2026-05-06 13:48 | 45.57581 | 4.89876 | 5606 ft | 259 kts | 122° |
| 2026-05-06 13:48 | 45.56668 | 4.92026 | 5475 ft | 248 kts | 123° |
| 2026-05-06 13:48 | 45.55790 | 4.94080 | 5289 ft | 240 kts | 123° |
| 2026-05-06 13:49 | 45.54924 | 4.96098 | 5084 ft | 237 kts | 123° |
| 2026-05-06 13:49 | 45.54060 | 4.98105 | 5021 ft | 237 kts | 123° |
| 2026-05-06 13:49 | 45.53198 | 5.00119 | 4944 ft | 239 kts | 121° |
| 2026-05-06 13:49 | 45.52605 | 5.02333 | 4621 ft | 241 kts | 103° |
| 2026-05-06 13:50 | 45.52543 | 5.04741 | 4267 ft | 244 kts | 82° |
| 2026-05-06 13:50 | 45.53043 | 5.07019 | 4201 ft | 241 kts | 63° |
| 2026-05-06 13:50 | 45.54008 | 5.08930 | 4083 ft | 235 kts | 45° |
| 2026-05-06 13:50 | 45.55304 | 5.10281 | 3906 ft | 229 kts | 27° |
| 2026-05-06 13:51 | 45.56775 | 5.10983 | 3657 ft | 218 kts | 9° |
| 2026-05-06 13:51 | 45.58243 | 5.11037 | 3432 ft | 204 kts | 354° |
| 2026-05-06 13:51 | 45.59610 | 5.10871 | 3154 ft | 192 kts | 355° |
| 2026-05-06 13:51 | 45.60904 | 5.10715 | 2892 ft | 181 kts | 355° |
| 2026-05-06 13:52 | 45.62129 | 5.10567 | 2666 ft | 171 kts | 355° |
| 2026-05-06 13:52 | 45.63280 | 5.10427 | 2432 ft | 161 kts | 355° |
| 2026-05-06 13:52 | 45.64377 | 5.10294 | 2209 ft | 156 kts | 354° |
| 2026-05-06 13:52 | 45.65443 | 5.10165 | 1995 ft | 152 kts | 354° |
| 2026-05-06 13:53 | 45.66491 | 5.10037 | 1801 ft | 150 kts | 355° |
| 2026-05-06 13:53 | 45.67530 | 5.09912 | 1578 ft | 149 kts | 355° |
| 2026-05-06 13:53 | 45.68563 | 5.09793 | 1361 ft | 148 kts | 355° |
| 2026-05-06 13:53 | 45.69586 | 5.09666 | 1156 ft | 147 kts | 354° |
| 2026-05-06 13:54 | 45.70601 | 5.09537 | 958 ft | 148 kts | 354° |
| 2026-05-06 13:54 | 45.71624 | 5.09404 | 800 ft | 142 kts | 354° |
| 2026-05-06 13:54 | 45.72393 | 5.09326 | 785 ft | 69 kts | 356° |
| 2026-05-06 13:54 | 45.72623 | 5.09298 | 781 ft | 19 kts | 353° |
| 2026-05-06 13:55 | 45.72756 | 5.09253 | 778 ft | 21 kts | 336° |
| 2026-05-06 13:55 | 45.72863 | 5.09172 | 777 ft | 10 kts | 325° |
| 2026-05-06 13:55 | 45.72907 | 5.09126 | 777 ft | 5 kts | 323° |
| 2026-05-06 13:55 | 45.72932 | 5.09099 | 777 ft | 4 kts | 323° |
| 2026-05-06 13:56 | 45.72949 | 5.09081 | 777 ft | 3 kts | 322° |
| 2026-05-06 13:56 | 45.72964 | 5.09062 | 778 ft | 3 kts | 312° |
| 2026-05-06 13:56 | 45.72967 | 5.09043 | 778 ft | 1 kts | 282° |
| 2026-05-06 13:56 | 45.72968 | 5.09027 | 779 ft | 2 kts | 272° |
| 2026-05-06 13:57 | 45.72967 | 5.08992 | 781 ft | 5 kts | 268° |
| 2026-05-06 13:57 | 45.72964 | 5.08930 | 783 ft | 8 kts | 265° |
| 2026-05-06 13:57 | 45.72958 | 5.08830 | 786 ft | 12 kts | 264° |